Cortland, NE

8:59 AM CDT on April 29, 2017 (GMT -0500)
MNE041 | | Change Station

Elev 1439 ft 40.47 °N, 96.72 °W | Updated 33 minutes ago

Light Rain
Light Rain
39.0 °F
Feels Like 31 °F
N
15.0
Wind Variable Wind from NE

Today
High -- | Low -- °F
--% Chance of Precip.
Yesterday
High -- | Low -- °F
Precip. -- in
Pressure 30.00 in
Visibility 10.0 miles
Clouds Scattered Clouds 5500 ft
Scattered Clouds 6500 ft
Overcast 8500 ft
Windchill 31 °F
Dew Point 37.0 °F
Humidity 90%
Rainfall in
Snow Depth Not available.
6:28 AM 8:20 PM
Waxing Crescent, 14% visible
METAR KBIE 291355Z AUTO 03012G20KT 10SM -RA SCT055 SCT065 OVC085 05/04 A3000 RMK AO2 P0006 T00500036
Pressure 30.00 in
Visibility 10.0 miles
Clouds Scattered Clouds 5500 ft
Scattered Clouds 6500 ft
Overcast 8500 ft
Windchill 31 °F
Dew Point 37.0 °F
Humidity 90%
Rainfall in
Snow Depth Not available.
6:28 AM 8:20 PM
Waxing Crescent, 14% visible
METAR KBIE 291355Z AUTO 03012G20KT 10SM -RA SCT055 SCT065 OVC085 05/04 A3000 RMK AO2 P0006 T00500036

Get Severe Weather Alerts

Thanks for signing up!

Be on the lookout for a verification email in your inbox.

You'll start receiving the daily forecast at 8 AM.

×

10-Day Weather Forecast

Almanac

Astronomy

Apr. 29, 2017 Rise Set
Actual Time
Civil Twilight
Nautical Twilight
Astronomical Twilight
Moon
Length of Visible Light
Length of Day
Tomorrow will be .
, % of the Moon is Illuminated

Today's Extremes

State Highs State Lows

Community

WunderPhotos

WunderBlog® & News

Nearby

Air Quality

  Air Quality AQ Index Pollutant
Not available.

Snow Depth

Station Depth Elevation

Earthquake Activity

City Distance Mag. Time & Date
Minimum magnitude displayed is 2.5.

Coastal Water Temperatures

Place Temperature

Stations

Nearby Weather Stations

Station Location Temp. Windchill Dew Point Humidity Wind Precip. Elev Updated Type
                   

Watches & Warnings

There are currently no watches in effect.